createdAt,value
2019-04-14T09:08:40.040Z,37.80
2019-04-14T09:11:12.897Z,34.00
2019-04-14T09:13:41.482Z,36.70
2019-04-14T09:16:09.746Z,35.40
2019-04-14T09:18:38.025Z,35.90
2019-04-14T09:21:06.902Z,35.90
2019-04-14T09:23:35.151Z,36.00
2019-04-14T09:26:03.473Z,35.90
2019-04-14T09:28:31.740Z,36.30
2019-04-14T09:31:00.009Z,36.70
2019-04-14T09:33:28.246Z,37.20
2019-04-14T09:35:56.493Z,37.30
2019-04-14T09:38:24.748Z,37.30
2019-04-14T09:40:52.984Z,37.50
2019-04-14T09:43:21.229Z,37.50
2019-04-14T09:45:49.843Z,37.20
2019-04-14T09:48:18.453Z,37.30
2019-04-14T09:50:46.689Z,37.10
2019-04-14T09:53:14.938Z,37.10
2019-04-14T09:55:43.183Z,37.10
2019-04-14T09:58:11.423Z,37.20
2019-04-14T10:00:40.736Z,37.00
2019-04-14T10:03:09.401Z,37.20
2019-04-14T10:05:37.716Z,37.10
2019-04-14T10:08:05.965Z,37.00
2019-04-14T10:10:34.718Z,37.00
2019-04-14T10:13:03.132Z,37.10
2019-04-14T10:15:31.385Z,36.90
2019-04-14T10:17:59.715Z,37.00
2019-04-14T10:20:27.958Z,36.80
2019-04-14T10:22:56.583Z,37.00
2019-04-14T10:25:24.822Z,36.60
2019-04-14T10:27:53.054Z,36.30
2019-04-14T10:30:21.324Z,36.50
2019-04-14T10:32:49.570Z,36.30
2019-04-14T10:35:17.798Z,36.40
2019-04-14T10:37:46.050Z,36.40
2019-04-14T10:40:14.287Z,36.60
2019-04-14T10:42:42.529Z,36.40
2019-04-14T10:45:10.996Z,36.60
2019-04-14T10:47:39.299Z,36.80
2019-04-14T10:50:07.815Z,36.80
2019-04-14T10:52:36.068Z,36.90
2019-04-14T10:55:08.036Z,36.70
2019-04-14T10:57:36.274Z,36.30
2019-04-14T11:00:10.848Z,35.80
2019-04-14T11:02:39.086Z,36.10
2019-04-14T11:05:07.321Z,36.30
2019-04-14T11:07:35.590Z,36.30
2019-04-14T11:10:07.897Z,36.20
2019-04-14T11:12:36.138Z,36.10
2019-04-14T11:15:09.304Z,36.00
2019-04-14T11:17:37.537Z,35.80
2019-04-14T11:20:08.453Z,35.30
2019-04-14T11:22:36.921Z,35.10
2019-04-14T11:25:06.226Z,34.70
2019-04-14T11:27:34.470Z,34.10
2019-04-14T11:30:02.902Z,34.00
2019-04-14T11:32:41.674Z,34.30
2019-04-14T11:35:17.367Z,34.50
2019-04-14T11:37:50.240Z,34.90
2019-04-14T11:40:20.194Z,33.80
2019-04-14T11:42:52.474Z,32.90
2019-04-14T11:45:18.476Z,34.00
2019-04-14T11:47:46.744Z,34.40
2019-04-14T11:50:15.109Z,34.10
2019-04-14T11:52:44.617Z,34.20
2019-04-14T11:55:14.513Z,34.20
2019-04-14T11:57:42.766Z,34.10
2019-04-14T12:00:30.986Z,34.00
2019-04-14T12:03:17.219Z,34.20
2019-04-14T12:06:03.537Z,33.80
2019-04-14T12:08:49.724Z,33.80
2019-04-14T12:11:18.028Z,33.70
2019-04-14T12:13:46.554Z,33.60
2019-04-14T12:16:14.842Z,33.10
2019-04-14T12:18:43.081Z,32.80
2019-04-14T12:21:11.321Z,32.70
2019-04-14T12:23:39.581Z,32.50
2019-04-14T12:26:07.814Z,32.60
2019-04-14T12:28:36.246Z,32.40
2019-04-14T12:31:06.408Z,32.50
2019-04-14T12:33:34.908Z,32.90
2019-04-14T12:36:03.224Z,33.00
2019-04-14T12:38:31.462Z,33.00
2019-04-14T12:41:02.132Z,33.30
2019-04-14T12:43:31.992Z,32.90
2019-04-14T12:46:01.890Z,32.80
2019-04-14T12:48:47.996Z,33.00
2019-04-14T12:51:26.869Z,33.40
2019-04-14T12:53:55.110Z,33.80
2019-04-14T12:56:25.001Z,32.90
2019-04-14T12:59:00.928Z,33.00
2019-04-14T13:01:30.836Z,32.80
2019-04-14T13:03:59.142Z,32.40
2019-04-14T13:06:27.397Z,32.20
2019-04-14T13:08:55.633Z,32.10
2019-04-14T13:11:23.886Z,32.20
2019-04-14T13:13:52.367Z,32.30
2019-04-14T13:16:20.617Z,32.10
2019-04-14T13:18:50.528Z,31.90
2019-04-14T13:21:18.991Z,31.80
2019-04-14T13:23:47.241Z,31.40
2019-04-14T13:26:15.485Z,31.40
2019-04-14T13:28:43.738Z,31.40
2019-04-14T13:31:11.977Z,30.90
2019-04-14T13:33:40.238Z,30.90
2019-04-14T13:36:08.491Z,30.70
2019-04-14T13:38:36.723Z,30.40
2019-04-14T13:41:05.119Z,30.60
2019-04-14T13:43:33.381Z,30.50
2019-04-14T13:46:01.609Z,30.30
2019-04-14T13:48:29.855Z,30.60
2019-04-14T13:50:58.113Z,30.30
2019-04-14T13:53:26.350Z,30.00
2019-04-14T13:55:54.649Z,29.90
2019-04-14T13:58:22.931Z,29.80
2019-04-14T14:00:51.184Z,29.80
2019-04-14T14:03:19.424Z,29.90
2019-04-14T14:05:47.674Z,30.00
2019-04-14T14:08:15.911Z,30.10
2019-04-14T14:10:44.150Z,30.00
2019-04-14T14:13:22.902Z,30.00
2019-04-14T14:16:09.408Z,30.00
2019-04-14T14:18:45.365Z,29.90
2019-04-14T14:21:31.650Z,30.00
2019-04-14T14:24:07.338Z,30.10
2019-04-14T14:26:42.891Z,29.80
2019-04-14T14:29:11.125Z,29.80
2019-04-14T14:31:39.397Z,29.60
2019-04-14T14:34:07.635Z,29.20
2019-04-14T14:36:35.881Z,28.90
2019-04-14T14:39:06.833Z,29.20
2019-04-14T14:41:35.078Z,29.10
2019-04-14T14:44:03.309Z,29.20
2019-04-14T14:46:42.179Z,29.10
2019-04-14T14:49:20.757Z,28.80
2019-04-14T14:51:52.273Z,28.80
2019-04-14T14:54:20.592Z,28.90
2019-04-14T14:56:48.819Z,28.50
2019-04-14T14:59:17.093Z,28.50
2019-04-14T15:01:45.325Z,28.40
2019-04-14T15:04:13.568Z,28.50
2019-04-14T15:06:41.824Z,28.80
2019-04-14T15:09:10.148Z,28.90
2019-04-14T15:11:38.401Z,28.80
2019-04-14T15:14:07.474Z,28.70
2019-04-14T15:16:36.257Z,28.80
2019-04-14T15:19:05.149Z,28.80
2019-04-14T15:21:33.401Z,28.80
2019-04-14T15:24:01.647Z,28.50
2019-04-14T15:26:29.878Z,28.50
2019-04-14T15:28:58.121Z,29.20
2019-04-14T15:31:26.358Z,28.50
2019-04-14T15:33:54.608Z,28.40
2019-04-14T15:36:22.844Z,28.40
2019-04-14T15:38:51.078Z,28.60
2019-04-14T15:41:19.382Z,28.60
2019-04-14T15:43:47.667Z,28.70
2019-04-14T15:46:15.914Z,28.60
2019-04-14T15:48:44.156Z,28.60
2019-04-14T15:51:12.426Z,28.60
2019-04-14T15:53:40.671Z,28.60
2019-04-14T15:56:10.553Z,28.70
2019-04-14T15:58:49.700Z,28.80
2019-04-14T16:01:31.436Z,29.00
2019-04-14T16:04:01.320Z,29.00
2019-04-14T16:06:31.206Z,28.90
2019-04-14T16:09:03.766Z,28.80
2019-04-14T16:11:33.710Z,29.00
2019-04-14T16:14:09.379Z,29.10
2019-04-14T16:16:57.726Z,29.10
2019-04-14T16:19:34.139Z,29.20
2019-04-14T16:22:02.367Z,29.20
2019-04-14T16:24:30.617Z,29.00
2019-04-14T16:27:06.630Z,29.00
2019-04-14T16:29:39.475Z,28.90
2019-04-14T16:32:09.349Z,29.10
2019-04-14T16:34:39.226Z,29.10
2019-04-14T16:37:07.477Z,29.20
2019-04-14T16:39:35.717Z,29.20
2019-04-14T16:42:06.466Z,29.20
2019-04-14T16:44:34.720Z,29.20
2019-04-14T16:47:02.960Z,29.20
2019-04-14T16:49:31.194Z,29.20
2019-04-14T16:52:15.702Z,29.20
2019-04-14T16:54:48.547Z,29.20
2019-04-14T16:57:34.996Z,29.40
2019-04-14T17:00:04.545Z,29.50
2019-04-14T17:02:32.785Z,29.40
2019-04-14T17:05:01.032Z,29.40
2019-04-14T17:07:29.272Z,29.20
2019-04-14T17:09:57.501Z,29.10
2019-04-14T17:12:25.753Z,29.10
2019-04-14T17:15:04.913Z,29.00
2019-04-14T17:17:34.830Z,29.00
2019-04-14T17:20:21.126Z,29.00
2019-04-14T17:22:53.750Z,29.00
2019-04-14T17:25:29.550Z,29.10
2019-04-14T17:27:59.442Z,29.20
2019-04-14T17:30:35.400Z,29.40
2019-04-14T17:33:05.280Z,29.50
2019-04-14T17:35:35.148Z,29.50
2019-04-14T17:38:05.038Z,29.60
2019-04-14T17:40:47.211Z,29.70
2019-04-14T17:43:22.906Z,29.80
2019-04-14T17:45:55.743Z,29.80
2019-04-14T17:48:43.624Z,29.90
2019-04-14T17:51:22.562Z,30.00
2019-04-14T17:54:07.689Z,30.10
2019-04-14T17:56:37.554Z,30.30
2019-04-14T17:59:25.504Z,30.50
2019-04-14T18:02:01.191Z,30.70
2019-04-14T18:04:33.749Z,30.80
2019-04-14T18:07:03.610Z,30.90
2019-04-14T18:09:36.535Z,31.00
2019-04-14T18:12:06.528Z,31.30
2019-04-14T18:14:56.196Z,31.30
2019-04-14T18:17:38.278Z,31.60
2019-04-14T18:20:15.107Z,31.70
2019-04-14T18:22:43.749Z,31.70
2019-04-14T18:25:13.627Z,31.80
2019-04-14T18:27:43.506Z,31.90
2019-04-14T18:30:16.435Z,32.10
2019-04-14T18:32:47.420Z,32.30
2019-04-14T18:35:33.426Z,32.40
2019-04-14T18:38:09.148Z,32.60
2019-04-14T18:40:41.913Z,32.80
2019-04-14T18:43:18.725Z,32.80
2019-04-14T18:45:54.858Z,33.10
2019-04-14T18:48:24.811Z,33.20
2019-04-14T18:51:06.762Z,33.30
2019-04-14T18:53:36.661Z,33.60
2019-04-14T18:56:07.021Z,33.40
2019-04-14T18:58:36.893Z,33.80
2019-04-14T19:01:07.512Z,33.80
2019-04-14T19:03:35.748Z,34.00
2019-04-14T19:06:04.279Z,34.20
2019-04-14T19:08:32.885Z,34.30
2019-04-14T19:11:15.071Z,34.50
2019-04-14T19:13:45.662Z,34.50
2019-04-14T19:16:24.745Z,34.50
2019-04-14T19:18:55.000Z,35.40
2019-04-14T19:21:25.902Z,35.50
2019-04-14T19:23:54.752Z,35.70
2019-04-14T19:26:23.024Z,35.70
2019-04-14T19:28:51.291Z,35.80
2019-04-14T19:31:19.578Z,36.00
2019-04-14T19:33:47.820Z,36.20
2019-04-14T19:36:16.112Z,36.10
2019-04-14T19:38:44.334Z,36.20
2019-04-14T19:41:12.682Z,36.30
2019-04-14T19:43:40.915Z,36.40
2019-04-14T19:46:09.126Z,36.40
2019-04-14T19:48:37.706Z,36.60
2019-04-14T19:51:05.950Z,36.60
2019-04-14T19:53:34.169Z,36.60
2019-04-14T19:56:05.177Z,36.70
2019-04-14T19:58:33.485Z,36.80
2019-04-14T20:01:01.931Z,36.90
2019-04-14T20:03:30.266Z,37.10
2019-04-14T20:05:58.502Z,37.30
2019-04-14T20:08:26.905Z,37.40
2019-04-14T20:10:55.320Z,37.50
2019-04-14T20:13:24.180Z,37.70
2019-04-14T20:16:09.251Z,37.80
2019-04-14T20:18:45.082Z,38.60
2019-04-14T20:21:24.857Z,38.00
2019-04-14T20:24:11.001Z,38.10
2019-04-14T20:26:41.482Z,38.20
2019-04-14T20:29:11.362Z,38.20
2019-04-14T20:31:48.764Z,38.40
2019-04-14T20:34:17.010Z,38.60
2019-04-14T20:36:45.253Z,38.50
2019-04-14T20:39:17.172Z,38.80
2019-04-14T20:41:45.579Z,38.90
2019-04-14T20:44:13.830Z,39.10
2019-04-14T20:46:42.062Z,39.20
2019-04-14T20:49:10.789Z,39.30
2019-04-14T20:51:39.016Z,39.40
2019-04-14T20:54:07.290Z,39.40
2019-04-14T20:56:35.539Z,39.50
2019-04-14T20:59:03.925Z,39.60
2019-04-14T21:01:33.810Z,39.90
2019-04-14T21:04:15.831Z,40.00
2019-04-14T21:07:02.086Z,40.20
2019-04-14T21:09:37.862Z,40.20
2019-04-14T21:12:10.460Z,40.10
2019-04-14T21:14:46.323Z,40.30
2019-04-14T21:17:25.197Z,40.40
2019-04-14T21:20:04.106Z,40.50
2019-04-14T21:22:36.711Z,40.50
2019-04-14T21:25:08.001Z,40.70
2019-04-14T21:27:38.111Z,41.00
2019-04-14T21:30:08.848Z,41.20
2019-04-14T21:32:38.733Z,41.10
2019-04-14T21:35:25.257Z,41.20
2019-04-14T21:37:58.091Z,41.30
2019-04-14T21:40:36.829Z,41.40
2019-04-14T21:43:05.058Z,41.40
2019-04-14T21:45:33.297Z,41.60
2019-04-14T21:48:01.539Z,42.40
2019-04-14T21:50:29.790Z,41.80
2019-04-14T21:52:58.048Z,41.90
2019-04-14T21:55:26.293Z,42.20
2019-04-14T21:58:05.140Z,42.20
2019-04-14T22:00:53.254Z,42.30
2019-04-14T22:03:23.121Z,42.50
2019-04-14T22:05:55.987Z,42.60
2019-04-14T22:08:28.761Z,42.70
2019-04-14T22:10:58.631Z,42.80
2019-04-14T22:13:26.865Z,42.90
2019-04-14T22:15:55.143Z,43.10
2019-04-14T22:18:23.390Z,43.20
2019-04-14T22:20:51.614Z,43.40
2019-04-14T22:23:21.520Z,43.50
2019-04-14T22:25:49.750Z,43.70
2019-04-14T22:28:18.005Z,43.70
2019-04-14T22:30:46.597Z,43.80
2019-04-14T22:33:14.831Z,44.00
2019-04-14T22:35:43.073Z,44.00
2019-04-14T22:38:11.331Z,44.10
2019-04-14T22:40:39.562Z,44.20
2019-04-14T22:43:07.789Z,44.20
2019-04-14T22:45:36.074Z,44.30
2019-04-14T22:48:05.201Z,44.40
2019-04-14T22:50:33.441Z,44.50
2019-04-14T22:53:01.753Z,44.50
2019-04-14T22:55:29.993Z,44.60
2019-04-14T22:57:58.298Z,44.60
2019-04-14T23:00:28.369Z,44.80
2019-04-14T23:03:01.005Z,45.00
2019-04-14T23:05:36.941Z,45.00
2019-04-14T23:08:08.970Z,45.10
2019-04-14T23:10:38.413Z,45.10
2019-04-14T23:13:11.242Z,45.20
2019-04-14T23:15:56.166Z,45.40
2019-04-14T23:18:32.027Z,45.40
2019-04-14T23:21:08.036Z,45.40
2019-04-14T23:23:46.957Z,45.50
2019-04-14T23:26:15.262Z,45.50
2019-04-14T23:28:43.529Z,45.70
2019-04-14T23:31:13.863Z,45.80
2019-04-14T23:33:42.101Z,45.90
2019-04-14T23:36:10.418Z,45.90
2019-04-14T23:38:38.714Z,46.00
2019-04-14T23:41:06.965Z,46.60
2019-04-14T23:43:35.191Z,46.20
2019-04-14T23:46:03.788Z,46.20
2019-04-14T23:48:32.050Z,46.30
2019-04-14T23:51:00.286Z,46.30
2019-04-14T23:53:28.533Z,46.40
2019-04-14T23:55:56.892Z,46.50
2019-04-14T23:58:25.155Z,46.50
